createdAt,value
2023-05-14T00:01:29.969Z,100584.80
2023-05-14T00:03:56.991Z,100584.51
2023-05-14T00:06:24.189Z,100587.06
2023-05-14T00:08:50.975Z,100588.11
2023-05-14T00:11:17.982Z,100587.91
2023-05-14T00:13:44.815Z,100591.45
2023-05-14T00:16:12.073Z,100595.91
2023-05-14T00:18:39.141Z,100597.20
2023-05-14T00:21:06.119Z,100600.33
2023-05-14T00:23:32.996Z,100604.07
2023-05-14T00:25:59.805Z,100601.07
2023-05-14T00:28:26.683Z,100601.56
2023-05-14T00:30:53.749Z,100598.80
2023-05-14T00:33:20.735Z,100601.34
2023-05-14T00:35:47.931Z,100606.71
2023-05-14T00:38:19.469Z,100613.76
2023-05-14T00:40:51.434Z,100616.14
2023-05-14T00:43:19.849Z,100616.33
2023-05-14T00:45:47.435Z,100611.65
2023-05-14T00:48:14.245Z,100616.62
2023-05-14T00:50:41.139Z,100615.19
2023-05-14T00:53:10.599Z,100616.98
2023-05-14T00:55:38.464Z,100624.92
2023-05-14T00:58:07.511Z,100620.61
2023-05-14T01:00:34.625Z,100617.38
2023-05-14T01:03:03.258Z,100617.27
2023-05-14T01:05:38.769Z,100616.77
2023-05-14T01:08:34.020Z,100616.08
2023-05-14T01:11:05.298Z,100618.63
2023-05-14T01:13:40.772Z,100619.73
2023-05-14T01:16:09.158Z,100617.39
2023-05-14T01:18:36.346Z,100621.83
2023-05-14T01:21:03.238Z,100625.38
2023-05-14T01:23:30.122Z,100626.81
2023-05-14T01:25:57.231Z,100625.52
2023-05-14T01:28:28.945Z,100629.05
2023-05-14T01:31:04.282Z,100624.73
2023-05-14T01:33:31.066Z,100625.13
2023-05-14T01:35:58.829Z,100627.13
2023-05-14T01:38:25.843Z,100623.20
2023-05-14T01:40:52.813Z,100619.48
2023-05-14T01:43:19.722Z,100619.48
2023-05-14T01:45:47.215Z,100616.27
2023-05-14T01:48:15.051Z,100613.59
2023-05-14T01:50:41.903Z,100608.41
2023-05-14T01:53:08.744Z,100606.84
2023-05-14T01:55:35.545Z,100599.36
2023-05-14T01:58:02.454Z,100599.97
2023-05-14T02:00:29.332Z,100596.28
2023-05-14T02:02:57.962Z,100596.73
2023-05-14T02:05:24.878Z,100595.84
2023-05-14T02:07:52.819Z,100599.42
2023-05-14T02:10:19.640Z,100607.99
2023-05-14T02:12:49.516Z,100604.98
2023-05-14T02:15:16.904Z,100608.14
2023-05-14T02:17:43.770Z,100601.81
2023-05-14T02:20:11.807Z,100597.59
2023-05-14T02:22:38.794Z,100591.47
2023-05-14T02:25:06.424Z,100588.71
2023-05-14T02:27:33.861Z,100584.85
2023-05-14T02:30:01.014Z,100583.88
2023-05-14T02:32:28.535Z,100581.23
2023-05-14T02:34:55.793Z,100582.55
2023-05-14T02:37:22.608Z,100584.46
2023-05-14T02:39:49.862Z,100577.55
2023-05-14T02:42:16.762Z,100585.00
2023-05-14T02:44:43.672Z,100583.20
2023-05-14T02:47:11.210Z,100577.85
2023-05-14T02:49:38.251Z,100579.92
2023-05-14T02:52:05.683Z,100590.33
2023-05-14T02:54:32.556Z,100592.56
2023-05-14T02:56:59.367Z,100584.38
2023-05-14T02:59:27.182Z,100580.02
2023-05-14T03:01:54.834Z,100578.95
2023-05-14T03:04:22.026Z,100576.38
2023-05-14T03:06:48.814Z,100580.08
2023-05-14T03:09:15.622Z,100582.55
2023-05-14T03:11:42.522Z,100582.71
2023-05-14T03:14:09.420Z,100581.48
2023-05-14T03:16:36.379Z,100586.40
2023-05-14T03:19:04.123Z,100590.35
2023-05-14T03:21:32.084Z,100593.39
2023-05-14T03:23:58.955Z,100597.91
2023-05-14T03:26:25.769Z,100590.09
2023-05-14T03:28:53.091Z,100591.45
2023-05-14T03:31:19.943Z,100592.75
2023-05-14T03:33:47.182Z,100593.73
2023-05-14T03:36:13.978Z,100599.22
2023-05-14T03:38:41.215Z,100597.73
2023-05-14T03:41:08.903Z,100597.39
2023-05-14T03:43:36.540Z,100606.29
2023-05-14T03:46:03.347Z,100595.54
2023-05-14T03:48:30.196Z,100590.91
2023-05-14T03:50:57.225Z,100593.75
2023-05-14T03:53:24.143Z,100594.85
2023-05-14T03:55:51.138Z,100598.34
2023-05-14T03:58:17.965Z,100596.52
2023-05-14T04:00:44.737Z,100596.90
2023-05-14T04:03:12.080Z,100591.95
2023-05-14T04:05:39.043Z,100588.64
2023-05-14T04:08:06.658Z,100587.83
2023-05-14T04:10:33.506Z,100594.89
2023-05-14T04:13:00.718Z,100594.77
2023-05-14T04:15:31.818Z,100592.55
2023-05-14T04:17:58.847Z,100592.46
2023-05-14T04:20:25.896Z,100590.38
2023-05-14T04:22:54.131Z,100591.17
2023-05-14T04:25:21.019Z,100589.96
2023-05-14T04:27:47.834Z,100588.05
2023-05-14T04:30:14.931Z,100586.98
2023-05-14T04:32:41.891Z,100588.23
2023-05-14T04:35:10.399Z,100589.85
2023-05-14T04:37:37.278Z,100595.55
2023-05-14T04:40:05.926Z,100589.42
2023-05-14T04:42:32.738Z,100597.48
2023-05-14T04:44:59.526Z,100598.42
2023-05-14T04:47:26.771Z,100599.58
2023-05-14T04:49:53.936Z,100596.14
2023-05-14T04:52:21.025Z,100597.89
2023-05-14T04:54:47.914Z,100597.04
2023-05-14T04:57:14.834Z,100594.20
2023-05-14T04:59:41.628Z,100592.96
2023-05-14T05:02:08.536Z,100592.02
2023-05-14T05:04:35.429Z,100585.93
2023-05-14T05:07:02.346Z,100581.02
2023-05-14T05:09:30.348Z,100579.30
2023-05-14T05:11:57.168Z,100571.91
2023-05-14T05:14:23.962Z,100566.17
2023-05-14T05:16:51.502Z,100580.08
2023-05-14T05:19:19.710Z,100575.04
2023-05-14T05:21:49.184Z,100565.93
2023-05-14T05:24:16.013Z,100566.24
2023-05-14T05:26:42.888Z,100566.13
2023-05-14T05:29:09.677Z,100565.98
2023-05-14T05:31:36.967Z,100566.19
2023-05-14T05:34:03.896Z,100563.77
2023-05-14T05:36:31.833Z,100563.50
2023-05-14T05:38:58.616Z,100556.70
2023-05-14T05:41:26.768Z,100556.55
2023-05-14T05:43:53.539Z,100553.06
2023-05-14T05:46:20.483Z,100554.94
2023-05-14T05:48:47.367Z,100555.16
2023-05-14T05:51:14.176Z,100555.54
2023-05-14T05:53:40.972Z,100548.00
2023-05-14T05:56:07.836Z,100548.90
2023-05-14T05:58:35.188Z,100546.23
2023-05-14T06:01:02.621Z,100549.35
2023-05-14T06:03:29.499Z,100547.01
2023-05-14T06:05:56.359Z,100548.20
2023-05-14T06:08:23.269Z,100550.36
2023-05-14T06:10:50.180Z,100547.83
2023-05-14T06:13:17.229Z,100550.20
2023-05-14T06:15:44.182Z,100547.18
2023-05-14T06:18:10.974Z,100549.48
2023-05-14T06:20:37.809Z,100550.16
2023-05-14T06:23:04.694Z,100546.19
2023-05-14T06:25:31.591Z,100546.28
2023-05-14T06:27:58.455Z,100543.75
2023-05-14T06:30:25.552Z,100542.94
2023-05-14T06:32:52.796Z,100541.30
2023-05-14T06:35:19.994Z,100541.13
2023-05-14T06:37:46.887Z,100539.91
2023-05-14T06:40:15.847Z,100537.59
2023-05-14T06:42:42.703Z,100531.90
2023-05-14T06:45:10.263Z,100528.31
2023-05-14T06:47:37.211Z,100528.08
2023-05-14T06:50:04.655Z,100526.16
2023-05-14T06:52:31.469Z,100523.29
2023-05-14T06:54:58.287Z,100521.83
2023-05-14T06:57:25.092Z,100518.67
2023-05-14T06:59:52.300Z,100519.58
2023-05-14T07:02:19.065Z,100522.37
2023-05-14T07:04:46.663Z,100519.06
2023-05-14T07:07:15.633Z,100516.57
2023-05-14T07:09:42.901Z,100519.45
2023-05-14T07:12:09.774Z,100514.12
2023-05-14T07:14:36.564Z,100517.28
2023-05-14T07:17:03.610Z,100512.52
2023-05-14T07:19:30.788Z,100510.76
2023-05-14T07:21:58.248Z,100508.87
2023-05-14T07:24:25.115Z,100513.49
2023-05-14T07:26:52.260Z,100516.11
2023-05-14T07:29:19.395Z,100510.84
2023-05-14T07:31:46.619Z,100515.09
2023-05-14T07:34:13.665Z,100512.85
2023-05-14T07:36:41.225Z,100506.88
2023-05-14T07:39:08.710Z,100503.01
2023-05-14T07:41:35.530Z,100501.64
2023-05-14T07:44:02.637Z,100492.36
2023-05-14T07:46:29.435Z,100490.52
2023-05-14T07:48:56.266Z,100489.17
2023-05-14T07:51:23.134Z,100490.78
2023-05-14T07:53:49.935Z,100487.27
2023-05-14T07:56:16.731Z,100490.31
2023-05-14T07:58:43.942Z,100496.39
2023-05-14T08:01:10.724Z,100497.32
2023-05-14T08:03:37.750Z,100494.65
2023-05-14T08:06:04.734Z,100497.02
2023-05-14T08:08:31.796Z,100491.04
2023-05-14T08:10:58.667Z,100488.27
2023-05-14T08:13:25.563Z,100482.36
2023-05-14T08:15:52.764Z,100479.88
2023-05-14T08:18:19.540Z,100480.65
2023-05-14T08:20:47.167Z,100477.74
2023-05-14T08:23:14.071Z,100476.17
2023-05-14T08:25:40.892Z,100477.43
2023-05-14T08:28:07.858Z,100475.02
2023-05-14T08:30:34.814Z,100473.03
2023-05-14T08:33:01.741Z,100468.68
2023-05-14T08:35:28.689Z,100468.54
2023-05-14T08:37:57.017Z,100464.18
2023-05-14T08:40:24.080Z,100461.88
2023-05-14T08:42:51.614Z,100461.09
2023-05-14T08:45:19.979Z,100456.33
2023-05-14T08:47:50.582Z,100457.16
2023-05-14T08:50:18.394Z,100451.36
2023-05-14T08:52:46.215Z,100450.91
2023-05-14T08:55:13.390Z,100450.09
2023-05-14T08:57:40.332Z,100446.39
2023-05-14T09:00:16.615Z,100443.52
2023-05-14T09:02:43.542Z,100440.83
2023-05-14T09:05:10.721Z,100436.78
2023-05-14T09:07:37.751Z,100436.14
2023-05-14T09:10:05.419Z,100434.41
2023-05-14T09:12:32.291Z,100436.62
2023-05-14T09:14:59.114Z,100437.55
2023-05-14T09:17:27.625Z,100431.45
2023-05-14T09:19:54.648Z,100433.35
2023-05-14T09:22:21.669Z,100435.64
2023-05-14T09:25:05.236Z,100433.10
2023-05-14T09:27:33.021Z,100430.59
2023-05-14T09:30:13.623Z,100428.79
2023-05-14T09:32:44.234Z,100444.03
2023-05-14T09:35:20.673Z,100449.96
2023-05-14T09:37:49.308Z,100449.15
2023-05-14T09:40:17.503Z,100458.06
2023-05-14T09:42:44.351Z,100457.48
2023-05-14T09:45:11.336Z,100462.79
2023-05-14T09:47:39.042Z,100472.08
2023-05-14T09:50:07.037Z,100473.50
2023-05-14T09:52:33.969Z,100467.73
2023-05-14T09:55:01.121Z,100462.39
2023-05-14T09:57:28.384Z,100461.56
2023-05-14T09:59:55.280Z,100450.20
2023-05-14T10:02:37.719Z,100446.83
2023-05-14T10:05:06.485Z,100445.87
2023-05-14T10:07:41.782Z,100446.20
2023-05-14T10:10:11.814Z,100443.55
2023-05-14T10:12:40.088Z,100441.30
2023-05-14T10:15:16.452Z,100438.32
2023-05-14T10:17:45.984Z,100430.48
2023-05-14T10:20:13.816Z,100430.52
2023-05-14T10:22:40.758Z,100432.73
2023-05-14T10:25:08.589Z,100423.99
2023-05-14T10:27:35.575Z,100424.09
2023-05-14T10:30:02.776Z,100423.36
2023-05-14T10:32:33.127Z,100416.09
2023-05-14T10:34:59.964Z,100416.36
2023-05-14T10:38:59.224Z,100423.59
2023-05-14T10:41:26.131Z,100415.95
2023-05-14T10:43:53.024Z,100418.14
2023-05-14T10:46:19.893Z,100415.97
2023-05-14T10:48:46.857Z,100417.12
2023-05-14T10:51:14.097Z,100418.08
2023-05-14T10:53:42.974Z,100415.46
2023-05-14T10:56:11.354Z,100413.74
2023-05-14T10:58:47.789Z,100414.48
2023-05-14T11:01:14.671Z,100409.41
2023-05-14T11:03:45.967Z,100404.91
2023-05-14T11:06:15.090Z,100399.98
2023-05-14T11:08:41.990Z,100396.98
2023-05-14T11:11:08.980Z,100396.67
2023-05-14T11:13:36.147Z,100392.31
2023-05-14T11:16:15.057Z,100393.45
2023-05-14T11:18:49.424Z,100389.23
2023-05-14T11:21:17.538Z,100384.77
2023-05-14T11:23:46.777Z,100382.48
2023-05-14T11:26:13.659Z,100382.58
2023-05-14T11:28:40.685Z,100382.56
2023-05-14T11:31:07.599Z,100382.42
2023-05-14T11:33:34.472Z,100378.68
2023-05-14T11:36:01.376Z,100374.54
2023-05-14T11:38:28.179Z,100371.25
2023-05-14T11:40:55.808Z,100362.45
2023-05-14T11:43:23.892Z,100360.19
2023-05-14T11:45:52.528Z,100354.46
2023-05-14T11:48:23.281Z,100355.16
2023-05-14T11:50:51.609Z,100355.50
2023-05-14T11:53:20.172Z,100354.57
2023-05-14T11:55:47.505Z,100356.77
2023-05-14T11:58:14.365Z,100354.21
2023-05-14T12:00:41.590Z,100358.27
2023-05-14T12:03:10.216Z,100353.41
2023-05-14T12:05:40.514Z,100352.40
2023-05-14T12:08:21.554Z,100351.99
2023-05-14T12:10:48.623Z,100353.10
2023-05-14T12:13:17.620Z,100351.04
2023-05-14T12:15:47.148Z,100348.84
2023-05-14T12:18:24.045Z,100343.91
2023-05-14T12:20:52.268Z,100344.66
2023-05-14T12:23:29.805Z,100347.64
2023-05-14T12:26:02.489Z,100350.95
2023-05-14T12:28:29.406Z,100356.93
2023-05-14T12:30:57.522Z,100356.90
2023-05-14T12:33:26.662Z,100358.30
2023-05-14T12:35:54.276Z,100347.41
2023-05-14T12:38:21.077Z,100366.27
2023-05-14T12:40:47.954Z,100369.97
2023-05-14T12:43:15.081Z,100362.23
2023-05-14T12:45:41.869Z,100352.64
2023-05-14T12:48:08.739Z,100363.64
2023-05-14T12:50:35.691Z,100363.52
2023-05-14T12:53:02.603Z,100355.25
2023-05-14T12:55:29.498Z,100356.01
2023-05-14T12:57:56.372Z,100336.09
2023-05-14T13:00:23.401Z,100329.98
2023-05-14T13:02:50.493Z,100335.37
2023-05-14T13:05:17.325Z,100342.79
2023-05-14T13:07:44.110Z,100343.59
2023-05-14T13:10:11.984Z,100341.16
2023-05-14T13:12:39.102Z,100349.83
2023-05-14T13:15:06.837Z,100345.22
2023-05-14T13:17:33.742Z,100343.59
2023-05-14T13:20:00.933Z,100341.23
2023-05-14T13:22:27.891Z,100338.36
2023-05-14T13:24:54.672Z,100336.99
2023-05-14T13:27:21.667Z,100341.41
2023-05-14T13:29:48.547Z,100341.36
2023-05-14T13:32:15.476Z,100339.19
2023-05-14T13:34:44.026Z,100339.69
2023-05-14T13:37:11.309Z,100340.63
2023-05-14T13:39:39.365Z,100332.77
2023-05-14T13:42:08.193Z,100332.45
2023-05-14T13:44:36.262Z,100332.96
2023-05-14T13:47:03.225Z,100332.46
2023-05-14T13:49:30.120Z,100334.14
2023-05-14T13:51:57.002Z,100335.82
2023-05-14T13:54:23.816Z,100332.81
2023-05-14T13:56:51.162Z,100334.90
2023-05-14T13:59:18.470Z,100332.60
2023-05-14T14:01:45.473Z,100333.98
2023-05-14T14:04:12.534Z,100334.55
2023-05-14T14:06:39.271Z,100331.67
2023-05-14T14:09:06.051Z,100330.98
2023-05-14T14:11:32.862Z,100329.38
2023-05-14T14:13:59.641Z,100325.23
2023-05-14T14:16:26.574Z,100327.68
2023-05-14T14:18:53.561Z,100327.94
2023-05-14T14:21:21.195Z,100326.23
2023-05-14T14:23:48.465Z,100324.09
2023-05-14T14:26:15.997Z,100325.05
2023-05-14T14:28:43.096Z,100320.99
2023-05-14T14:31:11.134Z,100318.67
2023-05-14T14:33:38.043Z,100317.92
2023-05-14T14:36:06.020Z,100317.27
2023-05-14T14:38:32.826Z,100319.77
2023-05-14T14:40:59.634Z,100315.91
2023-05-14T14:43:26.451Z,100314.45
2023-05-14T14:45:53.264Z,100313.68
2023-05-14T14:48:28.140Z,100313.59
2023-05-14T14:50:55.162Z,100308.70
2023-05-14T14:53:22.260Z,100307.36
2023-05-14T14:55:49.873Z,100309.74
2023-05-14T14:58:18.438Z,100304.08
2023-05-14T15:00:45.872Z,100302.77
2023-05-14T15:03:12.991Z,100306.13
2023-05-14T15:05:40.055Z,100309.61
2023-05-14T15:08:06.908Z,100310.14
2023-05-14T15:10:38.014Z,100309.30
2023-05-14T15:13:06.084Z,100306.17
2023-05-14T15:15:36.113Z,100304.30
2023-05-14T15:18:03.871Z,100306.42
2023-05-14T15:20:30.827Z,100305.23
2023-05-14T15:22:57.721Z,100311.20
2023-05-14T15:25:25.144Z,100306.70
2023-05-14T15:27:52.335Z,100310.20
2023-05-14T15:30:19.240Z,100304.48
2023-05-14T15:32:46.856Z,100300.34
2023-05-14T15:35:14.104Z,100296.24
2023-05-14T15:37:42.727Z,100291.14
2023-05-14T15:40:10.689Z,100290.55
2023-05-14T15:42:38.665Z,100283.50
2023-05-14T15:45:06.185Z,100280.27
2023-05-14T15:47:33.593Z,100280.48
2023-05-14T15:50:00.809Z,100276.06
2023-05-14T15:52:27.616Z,100271.36
2023-05-14T15:54:56.293Z,100270.85
2023-05-14T15:57:23.777Z,100263.98
2023-05-14T15:59:51.538Z,100268.13
2023-05-14T16:02:18.692Z,100264.31
2023-05-14T16:04:45.545Z,100265.54
2023-05-14T16:07:13.307Z,100269.23
2023-05-14T16:09:40.234Z,100266.92
2023-05-14T16:12:07.846Z,100266.54
2023-05-14T16:14:35.239Z,100267.52
2023-05-14T16:17:02.253Z,100263.64
2023-05-14T16:19:29.162Z,100264.63
2023-05-14T16:21:56.081Z,100263.36
2023-05-14T16:24:22.862Z,100264.29
2023-05-14T16:26:49.653Z,100261.27
2023-05-14T16:29:16.486Z,100262.04
2023-05-14T16:31:43.588Z,100264.92
2023-05-14T16:34:10.479Z,100265.89
2023-05-14T16:36:37.644Z,100270.23
2023-05-14T16:39:07.757Z,100266.99
2023-05-14T16:41:38.380Z,100268.90
2023-05-14T16:44:05.229Z,100266.36
2023-05-14T16:46:32.437Z,100266.86
2023-05-14T16:48:59.549Z,100269.79
2023-05-14T16:51:26.355Z,100270.73
2023-05-14T16:53:55.405Z,100269.58
2023-05-14T16:56:23.650Z,100268.69
2023-05-14T16:58:50.540Z,100265.80
2023-05-14T17:01:17.428Z,100269.48
2023-05-14T17:03:45.697Z,100271.50
2023-05-14T17:06:12.492Z,100271.53
2023-05-14T17:08:39.412Z,100274.01
2023-05-14T17:11:06.274Z,100276.48
2023-05-14T17:13:33.591Z,100275.16
2023-05-14T17:16:01.109Z,100276.34
2023-05-14T17:18:28.587Z,100272.77
2023-05-14T17:20:55.912Z,100277.34
2023-05-14T17:23:22.763Z,100275.99
2023-05-14T17:25:49.864Z,100273.80
2023-05-14T17:28:16.726Z,100271.91
2023-05-14T17:30:43.956Z,100274.35
2023-05-14T17:33:11.695Z,100272.32
2023-05-14T17:35:38.780Z,100275.40
2023-05-14T17:38:05.815Z,100279.23
2023-05-14T17:40:33.796Z,100284.20
2023-05-14T17:43:00.892Z,100285.57
2023-05-14T17:45:28.550Z,100291.11
2023-05-14T17:47:57.669Z,100290.39
2023-05-14T17:50:24.602Z,100287.88
2023-05-14T17:52:51.617Z,100288.15
2023-05-14T17:55:19.358Z,100290.20
2023-05-14T17:57:46.535Z,100290.15
2023-05-14T18:00:14.000Z,100289.95
2023-05-14T18:02:41.844Z,100295.08
2023-05-14T18:05:09.170Z,100294.95
2023-05-14T18:07:36.835Z,100300.43
2023-05-14T18:10:04.301Z,100302.90
2023-05-14T18:12:31.129Z,100299.43
2023-05-14T18:14:58.032Z,100300.57
2023-05-14T18:17:24.833Z,100301.06
2023-05-14T18:19:51.837Z,100302.34
2023-05-14T18:22:20.396Z,100304.08
2023-05-14T18:24:47.483Z,100303.80
2023-05-14T18:27:14.373Z,100301.66
2023-05-14T18:29:42.835Z,100298.23
2023-05-14T18:32:09.815Z,100298.73
2023-05-14T18:34:36.642Z,100303.48
2023-05-14T18:37:03.621Z,100306.38
2023-05-14T18:39:30.472Z,100303.20
2023-05-14T18:41:57.533Z,100300.79
2023-05-14T18:44:24.435Z,100297.39
2023-05-14T18:46:51.322Z,100297.02
2023-05-14T18:49:18.219Z,100296.99
2023-05-14T18:51:45.020Z,100298.39
2023-05-14T18:54:11.910Z,100296.80
2023-05-14T18:56:41.397Z,100296.05
2023-05-14T18:59:09.421Z,100300.92
2023-05-14T19:01:36.533Z,100300.84
2023-05-14T19:04:05.397Z,100299.39
2023-05-14T19:06:32.929Z,100303.37
2023-05-14T19:09:00.127Z,100305.27
2023-05-14T19:11:27.002Z,100301.69
2023-05-14T19:13:53.788Z,100300.58
2023-05-14T19:16:21.406Z,100296.53
2023-05-14T19:18:48.424Z,100300.44
2023-05-14T19:21:15.422Z,100298.49
2023-05-14T19:23:42.210Z,100302.86
2023-05-14T19:26:09.112Z,100305.48
2023-05-14T19:28:37.985Z,100308.71
2023-05-14T19:31:05.641Z,100307.59
2023-05-14T19:33:32.585Z,100300.92
2023-05-14T19:35:59.417Z,100302.86
2023-05-14T19:38:26.403Z,100306.49
2023-05-14T19:40:56.929Z,100302.29
2023-05-14T19:43:25.592Z,100304.23
2023-05-14T19:45:52.474Z,100305.30
2023-05-14T19:48:19.763Z,100302.21
2023-05-14T19:50:47.358Z,100301.14
2023-05-14T19:53:14.567Z,100304.07
2023-05-14T19:55:41.993Z,100306.28
2023-05-14T19:58:09.073Z,100293.55
2023-05-14T20:00:37.207Z,100295.27
2023-05-14T20:03:06.104Z,100294.45
2023-05-14T20:05:34.511Z,100293.97
2023-05-14T20:08:01.741Z,100294.04
2023-05-14T20:10:28.717Z,100294.48
2023-05-14T20:12:55.641Z,100296.91
2023-05-14T20:15:22.479Z,100299.02
2023-05-14T20:17:49.391Z,100301.19
2023-05-14T20:20:16.801Z,100305.00
2023-05-14T20:22:44.164Z,100305.73
2023-05-14T20:25:11.052Z,100303.73
2023-05-14T20:27:37.888Z,100300.43
2023-05-14T20:30:08.267Z,100301.70
2023-05-14T20:32:35.304Z,100296.36
2023-05-14T20:35:02.445Z,100295.36
2023-05-14T20:37:33.359Z,100295.30
2023-05-14T20:40:00.663Z,100291.48
2023-05-14T20:42:27.789Z,100290.84
2023-05-14T20:44:54.877Z,100290.20
2023-05-14T20:47:24.405Z,100286.77
2023-05-14T20:49:51.346Z,100286.64
2023-05-14T20:52:18.975Z,100287.75
2023-05-14T20:54:46.184Z,100292.90
2023-05-14T20:57:16.069Z,100291.45
2023-05-14T20:59:42.891Z,100294.52
2023-05-14T21:02:09.910Z,100292.48
2023-05-14T21:04:37.024Z,100291.11
2023-05-14T21:07:04.271Z,100288.48
2023-05-14T21:09:31.184Z,100288.40
2023-05-14T21:11:57.973Z,100287.10
2023-05-14T21:14:25.110Z,100285.82
2023-05-14T21:16:52.001Z,100282.10
2023-05-14T21:19:18.886Z,100283.16
2023-05-14T21:21:47.496Z,100280.20
2023-05-14T21:24:16.855Z,100280.30
2023-05-14T21:26:43.722Z,100277.72
2023-05-14T21:29:11.215Z,100275.52
2023-05-14T21:31:38.096Z,100276.12
2023-05-14T21:34:05.059Z,100275.70
2023-05-14T21:36:31.956Z,100274.58
2023-05-14T21:38:58.744Z,100277.62
2023-05-14T21:41:25.819Z,100275.98
2023-05-14T21:43:52.742Z,100281.67
2023-05-14T21:46:19.532Z,100280.05
2023-05-14T21:48:46.468Z,100278.05
2023-05-14T21:51:13.420Z,100280.17
2023-05-14T21:53:40.223Z,100278.50
2023-05-14T21:56:08.300Z,100282.36
2023-05-14T21:58:35.976Z,100281.41
2023-05-14T22:01:02.849Z,100282.09
2023-05-14T22:03:29.792Z,100278.80
2023-05-14T22:05:57.422Z,100279.31
2023-05-14T22:08:24.304Z,100277.30
2023-05-14T22:10:51.300Z,100270.16
2023-05-14T22:13:18.183Z,100270.80
2023-05-14T22:15:45.075Z,100269.60
2023-05-14T22:18:12.998Z,100264.60
2023-05-14T22:20:40.243Z,100261.27
2023-05-14T22:23:07.252Z,100259.29
2023-05-14T22:25:34.110Z,100260.13
2023-05-14T22:28:00.941Z,100262.93
2023-05-14T22:30:27.822Z,100261.48
2023-05-14T22:32:54.686Z,100259.17
2023-05-14T22:35:21.629Z,100257.53
2023-05-14T22:37:48.523Z,100259.59
2023-05-14T22:40:15.351Z,100255.34
2023-05-14T22:42:42.155Z,100255.62
2023-05-14T22:45:09.880Z,100257.33
2023-05-14T22:47:37.966Z,100255.64
2023-05-14T22:50:11.293Z,100253.60
2023-05-14T22:52:39.434Z,100253.73
2023-05-14T22:56:52.837Z,100256.71
2023-05-14T22:59:21.015Z,100249.59
2023-05-14T23:01:49.920Z,100253.51
2023-05-14T23:04:16.828Z,100252.05
2023-05-14T23:06:43.625Z,100252.25
2023-05-14T23:09:10.417Z,100245.43
2023-05-14T23:11:37.314Z,100246.63
2023-05-14T23:14:04.153Z,100245.35
2023-05-14T23:16:32.036Z,100241.55
2023-05-14T23:18:58.951Z,100244.02
2023-05-14T23:21:26.053Z,100242.27
2023-05-14T23:23:52.992Z,100245.08
2023-05-14T23:26:19.928Z,100246.99
2023-05-14T23:28:47.583Z,100248.45
2023-05-14T23:31:14.395Z,100246.02
2023-05-14T23:33:41.250Z,100245.22
2023-05-14T23:36:08.692Z,100245.79
2023-05-14T23:38:35.568Z,100245.96
2023-05-14T23:41:02.381Z,100245.23
2023-05-14T23:43:29.260Z,100243.73
2023-05-14T23:45:56.141Z,100242.40
2023-05-14T23:48:23.056Z,100243.58
2023-05-14T23:50:49.962Z,100246.42
2023-05-14T23:53:17.767Z,100242.51
2023-05-14T23:55:44.704Z,100244.32
2023-05-14T23:58:11.796Z,100242.42
